createdAt,value
2023-06-24T00:00:13.780Z,19.18
2023-06-24T00:01:13.812Z,19.21
2023-06-24T00:02:13.740Z,19.13
2023-06-24T00:03:13.776Z,19.18
2023-06-24T00:04:13.716Z,19.16
2023-06-24T00:05:13.680Z,19.22
2023-06-24T00:06:13.658Z,19.11
2023-06-24T00:07:13.661Z,19.13
2023-06-24T00:08:13.616Z,19.10
2023-06-24T00:09:13.607Z,19.08
2023-06-24T00:10:13.597Z,19.06
2023-06-24T00:11:13.563Z,18.99
2023-06-24T00:12:13.538Z,18.88
2023-06-24T00:13:13.521Z,18.90
2023-06-24T00:14:13.501Z,18.91
2023-06-24T00:15:13.487Z,18.90
2023-06-24T00:16:13.476Z,18.91
2023-06-24T00:17:13.471Z,18.92
2023-06-24T00:18:13.446Z,18.88
2023-06-24T00:19:13.412Z,18.92
2023-06-24T00:20:13.387Z,18.98
2023-06-24T00:21:13.367Z,18.98
2023-06-24T00:22:15.677Z,18.95
2023-06-24T00:23:13.329Z,18.98
2023-06-24T00:24:13.301Z,18.98
2023-06-24T00:25:13.303Z,18.90
2023-06-24T00:26:13.271Z,18.90
2023-06-24T00:27:13.248Z,18.82
2023-06-24T00:28:13.222Z,18.81
2023-06-24T00:29:13.212Z,18.66
2023-06-24T00:30:13.205Z,18.60
2023-06-24T00:31:13.189Z,18.55
2023-06-24T00:32:13.141Z,18.65
2023-06-24T00:33:13.154Z,18.70
2023-06-24T00:34:13.103Z,18.65
2023-06-24T00:35:13.086Z,18.52
2023-06-24T00:36:13.118Z,18.62
2023-06-24T00:37:13.046Z,18.54
2023-06-24T00:38:13.027Z,18.52
2023-06-24T00:39:13.011Z,18.48
2023-06-24T00:40:12.983Z,18.47
2023-06-24T00:41:13.403Z,18.47
2023-06-24T00:42:12.940Z,18.41
2023-06-24T00:43:12.925Z,18.41
2023-06-24T00:44:12.907Z,18.39
2023-06-24T00:45:12.895Z,18.51
2023-06-24T00:46:12.864Z,18.41
2023-06-24T00:47:12.851Z,18.45
2023-06-24T00:48:12.826Z,18.45
2023-06-24T00:49:12.826Z,18.45
2023-06-24T00:50:12.793Z,18.47
2023-06-24T00:51:12.767Z,18.44
2023-06-24T00:52:12.747Z,18.44
2023-06-24T00:53:12.737Z,18.41
2023-06-24T00:54:12.718Z,18.47
2023-06-24T00:55:12.683Z,18.41
2023-06-24T00:56:12.671Z,18.44
2023-06-24T00:57:12.651Z,18.44
2023-06-24T00:58:12.625Z,18.44
2023-06-24T00:59:12.611Z,18.37
2023-06-24T01:00:12.589Z,18.45
2023-06-24T01:01:12.577Z,18.39
2023-06-24T01:02:12.545Z,18.36
2023-06-24T01:03:12.594Z,18.30
2023-06-24T01:04:12.505Z,18.29
2023-06-24T01:05:12.509Z,18.27
2023-06-24T01:06:12.474Z,18.21
2023-06-24T01:07:12.604Z,18.23
2023-06-24T01:08:12.432Z,18.17
2023-06-24T01:09:12.411Z,18.15
2023-06-24T01:10:12.385Z,18.14
2023-06-24T01:11:12.373Z,18.18
2023-06-24T01:12:12.352Z,18.10
2023-06-24T01:13:12.330Z,18.14
2023-06-24T01:14:12.305Z,18.05
2023-06-24T01:15:12.286Z,18.10
2023-06-24T01:16:12.282Z,17.96
2023-06-24T01:17:12.252Z,17.99
2023-06-24T01:18:12.237Z,17.96
2023-06-24T01:19:12.211Z,17.96
2023-06-24T01:20:12.278Z,17.93
2023-06-24T01:21:12.195Z,17.95
2023-06-24T01:22:12.159Z,17.90
2023-06-24T01:23:12.151Z,17.96
2023-06-24T01:24:12.105Z,17.97
2023-06-24T01:25:12.092Z,17.93
2023-06-24T01:26:12.072Z,17.93
2023-06-24T01:27:12.054Z,17.93
2023-06-24T01:28:12.028Z,17.97
2023-06-24T01:29:12.014Z,17.90
2023-06-24T01:30:11.987Z,17.95
2023-06-24T01:31:11.987Z,17.82
2023-06-24T01:32:11.943Z,17.82
2023-06-24T01:33:11.956Z,17.84
2023-06-24T01:34:11.904Z,17.79
2023-06-24T01:35:11.895Z,17.82
2023-06-24T01:36:11.874Z,17.93
2023-06-24T01:37:11.877Z,17.92
2023-06-24T01:38:11.825Z,17.96
2023-06-24T01:39:11.811Z,17.96
2023-06-24T01:40:11.808Z,17.90
2023-06-24T01:41:11.769Z,18.02
2023-06-24T01:42:11.746Z,18.10
2023-06-24T01:43:11.725Z,18.12
2023-06-24T01:44:11.705Z,18.08
2023-06-24T01:45:11.692Z,18.08
2023-06-24T01:46:11.668Z,17.90
2023-06-24T01:47:11.772Z,17.95
2023-06-24T01:48:11.624Z,17.96
2023-06-24T01:49:11.611Z,17.93
2023-06-24T01:50:11.596Z,17.96
2023-06-24T01:51:11.576Z,17.89
2023-06-24T01:52:11.552Z,17.96
2023-06-24T01:53:11.552Z,17.89
2023-06-24T01:54:11.512Z,17.84
2023-06-24T01:55:11.485Z,17.79
2023-06-24T01:56:11.472Z,17.84
2023-06-24T01:57:11.447Z,17.81
2023-06-24T01:58:11.430Z,17.81
2023-06-24T01:59:11.424Z,17.90
2023-06-24T02:00:11.386Z,17.86
2023-06-24T02:01:11.370Z,17.93
2023-06-24T02:02:11.388Z,18.00
2023-06-24T02:03:11.652Z,17.90
2023-06-24T02:04:11.353Z,17.92
2023-06-24T02:05:11.305Z,17.97
2023-06-24T02:06:11.264Z,17.81
2023-06-24T02:07:11.320Z,17.90
2023-06-24T02:08:11.226Z,17.81
2023-06-24T02:09:11.238Z,17.78
2023-06-24T02:10:11.193Z,17.68
2023-06-24T02:11:11.181Z,17.62
2023-06-24T02:12:11.158Z,17.54
2023-06-24T02:13:11.177Z,17.55
2023-06-24T02:14:11.108Z,17.43
2023-06-24T02:15:11.087Z,17.44
2023-06-24T02:16:11.069Z,17.41
2023-06-24T02:17:11.078Z,17.40
2023-06-24T02:18:11.033Z,17.37
2023-06-24T02:19:11.006Z,17.40
2023-06-24T02:20:10.987Z,17.43
2023-06-24T02:21:10.966Z,17.56
2023-06-24T02:22:10.982Z,17.41
2023-06-24T02:23:10.923Z,17.52
2023-06-24T02:24:10.904Z,17.59
2023-06-24T02:25:10.927Z,17.63
2023-06-24T02:26:10.870Z,17.63
2023-06-24T02:27:10.865Z,17.64
2023-06-24T02:28:10.836Z,17.59
2023-06-24T02:29:10.815Z,17.63
2023-06-24T02:30:10.787Z,17.64
2023-06-24T02:31:10.795Z,17.70
2023-06-24T02:32:10.745Z,17.64
2023-06-24T02:33:10.723Z,17.66
2023-06-24T02:34:10.707Z,17.71
2023-06-24T02:35:10.691Z,17.64
2023-06-24T02:36:10.658Z,17.66
2023-06-24T02:37:10.640Z,17.70
2023-06-24T02:38:10.626Z,17.72
2023-06-24T02:39:10.602Z,17.63
2023-06-24T02:40:10.580Z,17.68
2023-06-24T02:41:10.581Z,17.62
2023-06-24T02:42:10.540Z,17.46
2023-06-24T02:43:10.519Z,17.49
2023-06-24T02:44:10.500Z,17.38
2023-06-24T02:45:10.482Z,17.46
2023-06-24T02:46:10.472Z,17.43
2023-06-24T02:47:10.608Z,17.40
2023-06-24T02:48:10.427Z,17.34
2023-06-24T02:49:10.403Z,17.46
2023-06-24T02:50:10.380Z,17.37
2023-06-24T02:51:10.354Z,17.36
2023-06-24T02:52:10.337Z,17.46
2023-06-24T02:53:10.335Z,17.46
2023-06-24T02:54:10.304Z,17.49
2023-06-24T02:55:10.285Z,17.31
2023-06-24T02:56:10.635Z,17.31
2023-06-24T02:57:10.261Z,17.30
2023-06-24T02:58:10.214Z,17.33
2023-06-24T02:59:10.198Z,17.40
2023-06-24T03:00:10.176Z,17.21
2023-06-24T03:01:10.159Z,17.36
2023-06-24T03:02:10.134Z,17.26
2023-06-24T03:03:10.249Z,17.26
2023-06-24T03:04:10.093Z,17.31
2023-06-24T03:05:10.076Z,17.36
2023-06-24T03:06:10.059Z,17.36
2023-06-24T03:07:10.076Z,17.34
2023-06-24T03:08:10.017Z,17.33
2023-06-24T03:09:10.007Z,17.28
2023-06-24T03:10:09.979Z,17.36
2023-06-24T03:11:09.950Z,17.40
2023-06-24T03:12:09.940Z,17.34
2023-06-24T03:13:09.955Z,17.34
2023-06-24T03:14:09.889Z,17.33
2023-06-24T03:15:09.883Z,17.33
2023-06-24T03:16:09.852Z,17.41
2023-06-24T03:17:09.845Z,17.43
2023-06-24T03:18:09.814Z,17.49
2023-06-24T03:19:09.805Z,17.49
2023-06-24T03:20:09.769Z,17.40
2023-06-24T03:21:09.751Z,17.41
2023-06-24T03:22:09.720Z,17.49
2023-06-24T03:23:09.711Z,17.38
2023-06-24T03:24:09.688Z,17.36
2023-06-24T03:25:09.675Z,17.43
2023-06-24T03:26:09.653Z,17.34
2023-06-24T03:27:09.628Z,17.31
2023-06-24T03:28:09.605Z,17.23
2023-06-24T03:29:09.616Z,17.25
2023-06-24T03:30:09.567Z,17.28
2023-06-24T03:31:09.572Z,17.46
2023-06-24T03:32:09.519Z,17.46
2023-06-24T03:33:09.507Z,17.48
2023-06-24T03:34:09.484Z,17.37
2023-06-24T03:35:09.471Z,17.36
2023-06-24T03:36:09.450Z,17.44
2023-06-24T03:37:09.423Z,17.37
2023-06-24T03:38:09.410Z,17.31
2023-06-24T03:39:09.384Z,17.30
2023-06-24T03:40:09.361Z,17.34
2023-06-24T03:41:09.335Z,17.36
2023-06-24T03:42:09.317Z,17.31
2023-06-24T03:43:09.304Z,17.26
2023-06-24T03:44:09.291Z,17.31
2023-06-24T03:45:09.297Z,17.40
2023-06-24T03:46:09.329Z,17.48
2023-06-24T03:47:09.224Z,17.43
2023-06-24T03:48:09.194Z,17.41
2023-06-24T03:49:09.176Z,17.49
2023-06-24T03:50:09.185Z,17.41
2023-06-24T03:51:09.141Z,17.40
2023-06-24T03:52:09.116Z,17.54
2023-06-24T03:53:09.105Z,17.54
2023-06-24T03:54:09.073Z,17.62
2023-06-24T03:55:09.083Z,17.64
2023-06-24T03:56:09.045Z,17.63
2023-06-24T03:57:09.027Z,17.64
2023-06-24T03:58:08.999Z,17.62
2023-06-24T03:59:08.970Z,17.66
2023-06-24T04:00:08.948Z,17.75
2023-06-24T04:01:08.996Z,17.71
2023-06-24T04:02:08.924Z,17.71
2023-06-24T04:03:08.944Z,17.70
2023-06-24T04:04:08.962Z,17.74
2023-06-24T04:05:08.855Z,17.77
2023-06-24T04:06:08.830Z,17.70
2023-06-24T04:07:08.841Z,17.74
2023-06-24T04:08:08.789Z,17.77
2023-06-24T04:09:08.764Z,17.86
2023-06-24T04:10:08.752Z,17.84
2023-06-24T04:11:08.725Z,17.93
2023-06-24T04:12:08.706Z,17.93
2023-06-24T04:13:08.678Z,17.93
2023-06-24T04:14:08.663Z,17.95
2023-06-24T04:15:08.648Z,17.95
2023-06-24T04:16:08.620Z,17.95
2023-06-24T04:17:08.625Z,18.08
2023-06-24T04:18:08.586Z,18.10
2023-06-24T04:19:08.567Z,18.07
2023-06-24T04:20:08.551Z,18.12
2023-06-24T04:21:08.525Z,18.05
2023-06-24T04:22:08.511Z,18.12
2023-06-24T04:23:08.479Z,18.12
2023-06-24T04:24:08.462Z,18.15
2023-06-24T04:25:08.436Z,18.14
2023-06-24T04:26:08.422Z,18.11
2023-06-24T04:27:08.417Z,18.17
2023-06-24T04:28:08.383Z,18.18
2023-06-24T04:29:08.354Z,18.20
2023-06-24T04:30:08.346Z,18.25
2023-06-24T04:31:08.396Z,18.29
2023-06-24T04:32:08.305Z,18.29
2023-06-24T04:33:08.305Z,18.26
2023-06-24T04:34:08.263Z,18.29
2023-06-24T04:35:08.254Z,18.29
2023-06-24T04:36:08.218Z,18.27
2023-06-24T04:37:08.194Z,18.30
2023-06-24T04:38:08.184Z,18.27
2023-06-24T04:39:08.157Z,18.17
2023-06-24T04:40:08.152Z,18.29
2023-06-24T04:41:08.117Z,18.30
2023-06-24T04:42:08.099Z,18.29
2023-06-24T04:43:08.082Z,18.21
2023-06-24T04:44:08.062Z,18.11
2023-06-24T04:45:08.047Z,18.15
2023-06-24T04:46:08.013Z,18.11
2023-06-24T04:47:08.105Z,18.11
2023-06-24T04:48:07.996Z,18.10
2023-06-24T04:49:07.972Z,18.23
2023-06-24T04:50:07.933Z,18.29
2023-06-24T04:51:07.916Z,18.29
2023-06-24T04:52:07.909Z,18.39
2023-06-24T04:53:07.881Z,18.36
2023-06-24T04:54:07.857Z,18.44
2023-06-24T04:55:07.841Z,18.45
2023-06-24T04:56:07.830Z,18.44
2023-06-24T04:57:07.793Z,18.47
2023-06-24T04:58:07.778Z,18.57
2023-06-24T04:59:07.757Z,18.57
2023-06-24T05:00:07.736Z,18.62
2023-06-24T05:01:07.730Z,18.67
2023-06-24T05:02:07.701Z,18.63
2023-06-24T05:03:07.707Z,18.72
2023-06-24T05:04:07.660Z,18.66
2023-06-24T05:05:07.726Z,18.69
2023-06-24T05:06:07.627Z,18.75
2023-06-24T05:07:07.688Z,18.73
2023-06-24T05:08:07.591Z,18.67
2023-06-24T05:09:07.560Z,18.76
2023-06-24T05:10:07.543Z,18.78
2023-06-24T05:11:07.577Z,18.78
2023-06-24T05:12:07.498Z,18.84
2023-06-24T05:13:07.494Z,18.85
2023-06-24T05:14:07.459Z,18.90
2023-06-24T05:15:07.469Z,18.94
2023-06-24T05:16:07.424Z,19.02
2023-06-24T05:17:07.411Z,18.99
2023-06-24T05:18:07.380Z,19.06
2023-06-24T05:19:07.357Z,19.08
2023-06-24T05:20:07.345Z,19.06
2023-06-24T05:21:07.338Z,19.10
2023-06-24T05:22:07.297Z,19.13
2023-06-24T05:23:07.280Z,19.14
2023-06-24T05:24:07.257Z,19.14
2023-06-24T05:25:07.239Z,19.22
2023-06-24T05:26:07.222Z,19.25
2023-06-24T05:27:07.217Z,19.22
2023-06-24T05:28:07.227Z,19.21
2023-06-24T05:29:07.154Z,19.31
2023-06-24T05:30:07.138Z,19.23
2023-06-24T05:31:07.136Z,19.25
2023-06-24T05:32:07.113Z,19.26
2023-06-24T05:33:08.932Z,19.28
2023-06-24T05:34:07.059Z,19.43
2023-06-24T05:35:07.045Z,19.44
2023-06-24T05:36:07.032Z,19.51
2023-06-24T05:37:07.025Z,19.47
2023-06-24T05:38:06.983Z,19.51
2023-06-24T05:39:06.954Z,19.63
2023-06-24T05:40:06.935Z,19.59
2023-06-24T05:41:06.930Z,19.59
2023-06-24T05:42:06.900Z,19.65
2023-06-24T05:43:06.876Z,19.68
2023-06-24T05:44:06.858Z,19.65
2023-06-24T05:45:06.847Z,19.76
2023-06-24T05:46:06.913Z,19.74
2023-06-24T05:47:06.798Z,19.80
2023-06-24T05:48:06.860Z,19.81
2023-06-24T05:49:06.760Z,19.83
2023-06-24T05:50:06.743Z,19.84
2023-06-24T05:51:06.728Z,19.86
2023-06-24T05:52:06.710Z,19.88
2023-06-24T05:53:06.702Z,19.91
2023-06-24T05:54:06.660Z,19.91
2023-06-24T05:55:06.639Z,19.94
2023-06-24T05:56:06.622Z,19.88
2023-06-24T05:57:06.602Z,19.98
2023-06-24T05:58:06.593Z,20.02
2023-06-24T05:59:06.563Z,20.02
2023-06-24T06:00:06.582Z,20.13
2023-06-24T06:01:06.524Z,20.18
2023-06-24T06:02:06.551Z,20.08
2023-06-24T06:03:06.512Z,20.21
2023-06-24T06:04:06.533Z,20.11
2023-06-24T06:05:06.454Z,20.24
2023-06-24T06:06:06.445Z,20.24
2023-06-24T06:07:06.463Z,20.31
2023-06-24T06:08:06.387Z,20.31
2023-06-24T06:09:06.386Z,20.38
2023-06-24T06:10:06.342Z,20.36
2023-06-24T06:11:06.322Z,20.32
2023-06-24T06:12:06.308Z,20.33
2023-06-24T06:13:06.294Z,20.32
2023-06-24T06:14:06.271Z,20.35
2023-06-24T06:15:06.257Z,20.35
2023-06-24T06:16:06.237Z,20.41
2023-06-24T06:17:06.214Z,20.47
2023-06-24T06:18:06.263Z,20.51
2023-06-24T06:19:06.174Z,20.43
2023-06-24T06:20:06.158Z,20.42
2023-06-24T06:21:06.129Z,20.48
2023-06-24T06:22:06.118Z,20.52
2023-06-24T06:23:06.101Z,20.48
2023-06-24T06:24:06.077Z,20.55
2023-06-24T06:25:06.079Z,20.57
2023-06-24T06:26:06.038Z,20.57
2023-06-24T06:27:06.017Z,20.62
2023-06-24T06:28:06.027Z,20.58
2023-06-24T06:29:05.981Z,20.70
2023-06-24T06:30:05.966Z,20.64
2023-06-24T06:31:05.940Z,20.77
2023-06-24T06:32:05.946Z,20.74
2023-06-24T06:33:05.931Z,20.76
2023-06-24T06:34:05.889Z,20.84
2023-06-24T06:35:05.875Z,20.79
2023-06-24T06:36:05.847Z,20.82
2023-06-24T06:37:05.829Z,20.87
2023-06-24T06:38:05.805Z,20.77
2023-06-24T06:39:05.785Z,20.89
2023-06-24T06:40:05.772Z,20.99
2023-06-24T06:41:05.769Z,20.92
2023-06-24T06:42:05.733Z,20.98
2023-06-24T06:43:05.725Z,20.98
2023-06-24T06:44:05.694Z,20.98
2023-06-24T06:45:05.680Z,21.03
2023-06-24T06:46:05.699Z,21.07
2023-06-24T06:47:05.635Z,21.10
2023-06-24T06:48:05.613Z,21.10
2023-06-24T06:49:05.599Z,21.10
2023-06-24T06:50:05.577Z,21.16
2023-06-24T06:51:05.565Z,21.17
2023-06-24T06:52:05.546Z,21.16
2023-06-24T06:53:05.532Z,21.19
2023-06-24T06:54:05.509Z,21.24
2023-06-24T06:55:05.483Z,21.27
2023-06-24T06:56:05.467Z,21.25
2023-06-24T06:57:05.468Z,21.28
2023-06-24T06:58:05.426Z,21.31
2023-06-24T06:59:05.420Z,21.46
2023-06-24T07:00:05.388Z,21.38
2023-06-24T07:01:05.394Z,21.43
2023-06-24T07:02:05.350Z,21.40
2023-06-24T07:03:05.345Z,21.35
2023-06-24T07:04:05.339Z,21.42
2023-06-24T07:05:05.292Z,21.40
2023-06-24T07:06:05.276Z,21.47
2023-06-24T07:07:05.342Z,21.50
2023-06-24T07:08:05.237Z,21.56
2023-06-24T07:09:05.216Z,21.54
2023-06-24T07:10:05.201Z,21.53
2023-06-24T07:11:05.171Z,21.56
2023-06-24T07:12:05.158Z,21.67
2023-06-24T07:13:05.175Z,21.71
2023-06-24T07:14:05.124Z,21.65
2023-06-24T07:15:05.096Z,21.75
2023-06-24T07:16:05.074Z,21.84
2023-06-24T07:17:05.057Z,21.90
2023-06-24T07:18:05.092Z,21.92
2023-06-24T07:19:05.027Z,22.00
2023-06-24T07:20:05.006Z,21.98
2023-06-24T07:21:05.001Z,21.96
2023-06-24T07:22:04.965Z,22.00
2023-06-24T07:23:04.939Z,21.94
2023-06-24T07:24:04.924Z,22.02
2023-06-24T07:25:04.916Z,22.09
2023-06-24T07:26:04.890Z,22.10
2023-06-24T07:27:04.875Z,22.15
2023-06-24T07:28:04.872Z,22.15
2023-06-24T07:29:09.132Z,22.20
2023-06-24T07:30:04.822Z,22.21
2023-06-24T07:31:04.830Z,22.20
2023-06-24T07:32:04.775Z,22.27
2023-06-24T07:33:04.802Z,22.36
2023-06-24T07:34:04.753Z,22.42
2023-06-24T07:35:04.722Z,22.36
2023-06-24T07:36:04.701Z,22.40
2023-06-24T07:37:14.880Z,22.43
2023-06-24T07:38:04.666Z,22.42
2023-06-24T07:39:04.641Z,22.47
2023-06-24T07:40:04.631Z,22.52
2023-06-24T07:41:04.643Z,22.43
2023-06-24T07:42:04.616Z,22.57
2023-06-24T07:43:04.611Z,22.60
2023-06-24T07:44:04.590Z,22.64
2023-06-24T07:45:04.621Z,22.68
2023-06-24T07:46:04.525Z,22.75
2023-06-24T07:47:04.587Z,22.75
2023-06-24T07:48:04.533Z,22.83
2023-06-24T07:49:04.454Z,22.80
2023-06-24T07:50:04.438Z,22.82
2023-06-24T07:51:04.417Z,22.80
2023-06-24T07:52:04.399Z,22.91
2023-06-24T07:53:04.403Z,22.94
2023-06-24T07:54:04.366Z,22.98
2023-06-24T07:55:04.348Z,23.00
2023-06-24T07:56:04.326Z,23.04
2023-06-24T07:57:04.331Z,23.15
2023-06-24T07:58:04.296Z,23.12
2023-06-24T07:59:04.276Z,23.16
2023-06-24T08:00:04.254Z,23.16
2023-06-24T08:01:04.258Z,23.16
2023-06-24T08:02:04.219Z,23.25
2023-06-24T08:03:04.339Z,23.32
2023-06-24T08:04:04.425Z,23.38
2023-06-24T08:05:04.167Z,23.50
2023-06-24T08:06:04.147Z,23.42
2023-06-24T08:07:04.229Z,23.43
2023-06-24T08:08:04.127Z,23.47
2023-06-24T08:09:04.084Z,23.50
2023-06-24T08:10:04.069Z,23.50
2023-06-24T08:11:04.064Z,23.57
2023-06-24T08:12:04.032Z,23.61
2023-06-24T08:13:04.017Z,23.69
2023-06-24T08:14:04.004Z,23.80
2023-06-24T08:15:03.981Z,23.68
2023-06-24T08:16:03.981Z,23.70
2023-06-24T08:17:04.007Z,23.76
2023-06-24T08:18:03.998Z,23.76
2023-06-24T08:19:03.911Z,23.83
2023-06-24T08:20:03.894Z,23.85
2023-06-24T08:21:03.917Z,23.87
2023-06-24T08:22:03.881Z,23.97
2023-06-24T08:23:03.874Z,23.98
2023-06-24T08:24:03.825Z,24.00
2023-06-24T08:25:03.807Z,23.98
2023-06-24T08:26:15.991Z,23.94
2023-06-24T08:27:03.775Z,23.93
2023-06-24T08:28:03.746Z,23.93
2023-06-24T08:29:04.951Z,23.93
2023-06-24T08:30:03.718Z,24.03
2023-06-24T08:31:03.720Z,24.02
2023-06-24T08:32:03.687Z,24.08
2023-06-24T08:33:03.767Z,24.16
2023-06-24T08:34:03.682Z,24.06
2023-06-24T08:35:03.635Z,24.06
2023-06-24T08:36:03.604Z,24.24
2023-06-24T08:37:03.589Z,24.10
2023-06-24T08:38:03.570Z,24.16
2023-06-24T08:39:03.552Z,24.21
2023-06-24T08:40:03.538Z,24.28
2023-06-24T08:41:03.517Z,24.31
2023-06-24T08:42:03.493Z,24.30
2023-06-24T08:43:03.486Z,24.22
2023-06-24T08:44:03.490Z,24.34
2023-06-24T08:45:03.505Z,24.18
2023-06-24T08:46:03.424Z,24.28
2023-06-24T08:47:03.438Z,24.20
2023-06-24T08:48:03.510Z,24.30
2023-06-24T08:49:03.506Z,24.22
2023-06-24T08:50:03.358Z,24.31
2023-06-24T08:51:03.350Z,24.28
2023-06-24T08:52:03.351Z,24.37
2023-06-24T08:53:03.307Z,24.47
2023-06-24T08:54:03.288Z,24.60
2023-06-24T08:55:03.273Z,24.57
2023-06-24T08:56:03.256Z,24.69
2023-06-24T08:57:03.233Z,24.78
2023-06-24T08:58:03.213Z,24.77
2023-06-24T08:59:03.200Z,24.78
2023-06-24T09:00:03.177Z,24.81
2023-06-24T09:01:03.179Z,24.88
2023-06-24T09:02:03.253Z,24.88
2023-06-24T09:03:03.230Z,24.90
2023-06-24T09:04:03.221Z,24.98
2023-06-24T09:05:03.170Z,24.99
2023-06-24T09:06:03.093Z,25.02
2023-06-24T09:07:03.665Z,25.00
2023-06-24T09:08:03.056Z,24.99
2023-06-24T09:09:03.026Z,25.09
2023-06-24T09:10:03.013Z,25.13
2023-06-24T09:11:02.991Z,25.14
2023-06-24T09:12:02.968Z,25.17
2023-06-24T09:13:02.959Z,25.09
2023-06-24T09:14:02.952Z,25.10
2023-06-24T09:15:02.921Z,25.14
2023-06-24T09:16:02.903Z,25.25
2023-06-24T09:17:02.891Z,25.24
2023-06-24T09:18:02.901Z,25.32
2023-06-24T09:19:02.851Z,25.36
2023-06-24T09:20:02.839Z,25.30
2023-06-24T09:21:02.842Z,25.30
2023-06-24T09:22:02.792Z,25.33
2023-06-24T09:23:02.791Z,25.36
2023-06-24T09:24:02.774Z,25.38
2023-06-24T09:25:02.744Z,25.46
2023-06-24T09:26:02.738Z,25.45
2023-06-24T09:27:02.719Z,25.45
2023-06-24T09:28:02.696Z,25.57
2023-06-24T09:29:02.674Z,25.58
2023-06-24T09:30:02.657Z,25.52
2023-06-24T09:31:17.571Z,25.52
2023-06-24T09:32:02.666Z,25.47
2023-06-24T09:33:02.653Z,25.55
2023-06-24T09:34:02.613Z,25.51
2023-06-24T09:35:04.709Z,25.60
2023-06-24T09:36:02.556Z,25.60
2023-06-24T09:37:02.582Z,25.54
2023-06-24T09:38:02.520Z,25.52
2023-06-24T09:39:02.511Z,25.47
2023-06-24T09:40:02.549Z,25.55
2023-06-24T09:41:12.871Z,25.64
2023-06-24T09:42:02.451Z,25.64
2023-06-24T09:43:02.442Z,25.70
2023-06-24T09:44:02.414Z,25.75
2023-06-24T09:45:02.405Z,25.88
2023-06-24T09:46:02.441Z,25.88
2023-06-24T09:47:02.372Z,25.85
2023-06-24T09:48:02.406Z,25.99
2023-06-24T09:49:02.337Z,25.98
2023-06-24T09:50:03.504Z,26.01
2023-06-24T09:51:02.304Z,25.99
2023-06-24T09:52:02.289Z,26.12
2023-06-24T09:53:02.294Z,26.15
2023-06-24T09:54:02.260Z,26.12
2023-06-24T09:55:04.728Z,26.12
2023-06-24T09:56:02.232Z,26.13
2023-06-24T09:57:02.201Z,26.20
2023-06-24T09:58:02.186Z,26.13
2023-06-24T09:59:02.170Z,25.97
2023-06-24T10:00:02.152Z,25.91
2023-06-24T10:01:02.144Z,25.90
2023-06-24T10:02:02.124Z,25.98
2023-06-24T10:03:02.174Z,25.91
2023-06-24T10:04:02.160Z,25.87
2023-06-24T10:05:02.105Z,26.01
2023-06-24T10:06:02.049Z,26.05
2023-06-24T10:07:02.063Z,26.07
2023-06-24T10:08:02.020Z,26.13
2023-06-24T10:09:02.036Z,26.26
2023-06-24T10:10:02.008Z,26.25
2023-06-24T10:11:01.970Z,26.37
2023-06-24T10:12:01.956Z,26.36
2023-06-24T10:13:01.939Z,26.48
2023-06-24T10:14:01.945Z,26.62
2023-06-24T10:15:01.931Z,26.58
2023-06-24T10:16:01.898Z,26.37
2023-06-24T10:17:01.875Z,26.39
2023-06-24T10:18:15.830Z,26.43
2023-06-24T10:19:01.842Z,26.54
2023-06-24T10:20:01.825Z,26.58
2023-06-24T10:21:01.816Z,26.73
2023-06-24T10:22:01.789Z,26.80
2023-06-24T10:23:01.777Z,26.72
2023-06-24T10:24:01.756Z,26.70
2023-06-24T10:25:01.760Z,26.60
2023-06-24T10:26:01.725Z,26.69
2023-06-24T10:27:01.714Z,26.67
2023-06-24T10:28:01.721Z,26.67
2023-06-24T10:29:01.682Z,26.60
2023-06-24T10:30:01.659Z,26.57
2023-06-24T10:31:01.676Z,26.40
2023-06-24T10:32:01.626Z,26.28
2023-06-24T10:33:01.650Z,26.23
2023-06-24T10:34:01.596Z,26.05
2023-06-24T10:35:01.593Z,26.05
2023-06-24T10:36:01.564Z,25.83
2023-06-24T10:37:01.557Z,25.72
2023-06-24T10:38:01.548Z,25.70
2023-06-24T10:39:01.512Z,25.52
2023-06-24T10:40:01.597Z,25.58
2023-06-24T10:41:01.513Z,25.47
2023-06-24T10:42:01.463Z,25.57
2023-06-24T10:43:01.455Z,25.57
2023-06-24T10:44:01.428Z,25.75
2023-06-24T10:45:01.415Z,25.82
2023-06-24T10:46:01.393Z,25.85
2023-06-24T10:47:01.535Z,25.98
2023-06-24T10:48:01.621Z,26.06
2023-06-24T10:49:01.350Z,26.18
2023-06-24T10:50:01.329Z,26.26
2023-06-24T10:51:01.316Z,26.32
2023-06-24T10:52:01.299Z,26.39
2023-06-24T10:53:01.288Z,26.52
2023-06-24T10:54:01.263Z,26.62
2023-06-24T10:55:01.257Z,26.75
2023-06-24T10:56:01.237Z,26.69
2023-06-24T10:57:01.247Z,26.72
2023-06-24T10:58:01.201Z,26.75
2023-06-24T10:59:01.183Z,26.77
2023-06-24T11:00:01.178Z,26.85
2023-06-24T11:01:01.178Z,26.76
2023-06-24T11:02:01.157Z,26.84
2023-06-24T11:03:01.216Z,26.82
2023-06-24T11:04:01.105Z,26.65
2023-06-24T11:05:01.100Z,26.58
2023-06-24T11:06:01.092Z,26.55
2023-06-24T11:07:01.094Z,26.51
2023-06-24T11:08:01.037Z,26.50
2023-06-24T11:09:01.023Z,26.50
2023-06-24T11:10:01.004Z,26.51
2023-06-24T11:11:00.988Z,26.52
2023-06-24T11:12:00.970Z,26.57
2023-06-24T11:13:00.984Z,26.60
2023-06-24T11:14:00.937Z,26.72
2023-06-24T11:15:00.922Z,26.60
2023-06-24T11:16:00.900Z,26.62
2023-06-24T11:17:00.891Z,26.62
2023-06-24T11:18:00.904Z,26.65
2023-06-24T11:19:00.867Z,26.63
2023-06-24T11:20:00.855Z,26.55
2023-06-24T11:21:00.833Z,26.62
2023-06-24T11:22:00.814Z,26.72
2023-06-24T11:23:00.798Z,26.69
2023-06-24T11:24:00.776Z,26.76
2023-06-24T11:25:00.756Z,26.82
2023-06-24T11:26:00.747Z,26.94
2023-06-24T11:27:00.737Z,26.97
2023-06-24T11:28:00.711Z,26.95
2023-06-24T11:29:00.733Z,26.95
2023-06-24T11:30:00.695Z,27.07
2023-06-24T11:31:00.756Z,27.07
2023-06-24T11:32:00.646Z,27.19
2023-06-24T11:33:00.697Z,27.17
2023-06-24T11:34:00.622Z,27.28
2023-06-24T11:35:00.610Z,27.31
2023-06-24T11:36:00.582Z,27.37
2023-06-24T11:37:00.565Z,27.29
2023-06-24T11:38:00.573Z,27.29
2023-06-24T11:39:00.542Z,27.19
2023-06-24T11:40:00.526Z,27.13
2023-06-24T11:41:00.520Z,27.19
2023-06-24T11:42:00.488Z,27.25
2023-06-24T11:43:00.477Z,27.27
2023-06-24T11:44:00.480Z,27.27
2023-06-24T11:45:00.464Z,27.22
2023-06-24T11:46:00.429Z,27.17
2023-06-24T11:47:00.429Z,27.32
2023-06-24T11:48:00.476Z,27.32
2023-06-24T11:49:00.386Z,27.37
2023-06-24T11:50:00.363Z,27.47
2023-06-24T11:51:00.353Z,27.50
2023-06-24T11:52:00.334Z,27.60
2023-06-24T11:53:00.320Z,27.46
2023-06-24T11:54:00.309Z,27.36
2023-06-24T11:55:00.289Z,27.32
2023-06-24T11:56:00.297Z,27.22
2023-06-24T11:57:00.272Z,27.28
2023-06-24T11:58:00.231Z,27.10
2023-06-24T11:59:00.229Z,26.99
2023-06-24T12:00:00.229Z,26.97
2023-06-24T12:01:00.222Z,26.88
2023-06-24T12:02:00.176Z,26.97
2023-06-24T12:03:00.345Z,27.07
2023-06-24T12:04:00.380Z,27.06
2023-06-24T12:05:00.305Z,27.28
2023-06-24T12:06:00.135Z,27.24
2023-06-24T12:07:00.240Z,27.34
2023-06-24T12:08:00.148Z,27.50
2023-06-24T12:09:00.068Z,27.59
2023-06-24T12:10:00.050Z,27.57
2023-06-24T12:11:00.046Z,27.55
2023-06-24T12:12:00.051Z,27.62
2023-06-24T12:13:00.018Z,27.55
2023-06-24T12:13:59.990Z,27.57
2023-06-24T12:14:59.974Z,27.47
2023-06-24T12:15:59.965Z,27.34
2023-06-24T12:16:59.958Z,27.40
2023-06-24T12:17:59.925Z,27.44
2023-06-24T12:18:59.908Z,27.50
2023-06-24T12:19:59.897Z,27.46
2023-06-24T12:20:59.874Z,27.59
2023-06-24T12:21:59.856Z,27.75
2023-06-24T12:22:59.853Z,27.81
2023-06-24T12:23:59.835Z,27.85
2023-06-24T12:24:59.813Z,27.79
2023-06-24T12:25:59.802Z,27.90
2023-06-24T12:26:59.801Z,27.87
2023-06-24T12:27:59.769Z,28.11
2023-06-24T12:28:59.759Z,28.03
2023-06-24T12:29:59.735Z,28.15
2023-06-24T12:30:59.722Z,28.21
2023-06-24T12:31:59.773Z,28.22
2023-06-24T12:32:59.771Z,28.25
2023-06-24T12:33:59.683Z,28.21
2023-06-24T12:34:59.658Z,28.19
2023-06-24T12:35:59.647Z,28.27
2023-06-24T12:36:59.626Z,28.27
2023-06-24T12:37:59.623Z,28.37
2023-06-24T12:38:59.596Z,28.30
2023-06-24T12:39:59.591Z,28.33
2023-06-24T12:40:59.574Z,28.19
2023-06-24T12:41:59.560Z,28.21
2023-06-24T12:42:59.536Z,28.15
2023-06-24T12:43:59.525Z,28.14
2023-06-24T12:44:59.498Z,28.12
2023-06-24T12:45:59.498Z,28.17
2023-06-24T12:46:59.472Z,28.15
2023-06-24T12:47:59.484Z,28.11
2023-06-24T12:48:59.468Z,28.19
2023-06-24T12:49:59.437Z,28.21
2023-06-24T12:50:59.415Z,28.19
2023-06-24T12:51:59.410Z,28.24